Time;durP1;ratioP1;P1;durP2;ratioP2;P2;SDS_P1;SDS_P2;PMS_P1;PMS_P2;Temp;Humidity;BMP_temperature;BMP_pressure;BME280_temperature;BME280_humidity;BME280_pressure;Samples;Min_cycle;Max_cycle;Signal;HPM_P1;HPM_P2
2021/07/24 00:00:46;;;;;;;12.52;7.68;;;;;;;22.41;53.17;98658.88;5114662;28;20040;-92
2021/07/24 00:03:11;;;;;;;12.35;7.18;;;;;;;22.45;53.43;98665.78;5115558;28;20036;-90
2021/07/24 00:05:37;;;;;;;12.15;7.10;;;;;;;22.48;53.60;98670.09;5115738;28;20055;-92
2021/07/24 00:08:03;;;;;;;11.60;7.25;;;;;;;22.43;53.63;98675.03;5115573;28;20066;-93
2021/07/24 00:10:29;;;;;;;9.48;6.35;;;;;;;22.37;54.11;98664.66;5115570;28;20035;-91
2021/07/24 00:12:55;;;;;;;11.20;7.35;;;;;;;22.21;54.98;98668.53;5115161;28;20032;-91
2021/07/24 00:15:22;;;;;;;14.57;7.00;;;;;;;22.17;54.67;98661.59;5114646;28;20710;-92
2021/07/24 00:17:48;;;;;;;11.70;6.75;;;;;;;22.06;55.10;98654.31;5114918;28;20056;-91
2021/07/24 00:20:13;;;;;;;12.43;6.38;;;;;;;22.03;55.20;98657.22;5115041;28;20468;-92
2021/07/24 00:22:39;;;;;;;10.48;7.10;;;;;;;22.04;55.23;98661.69;5115488;28;20036;-91
2021/07/24 00:25:06;;;;;;;10.93;6.60;;;;;;;21.99;55.44;98657.56;5114794;28;20042;-92
2021/07/24 00:27:31;;;;;;;10.57;7.03;;;;;;;21.92;55.72;98668.91;5114928;28;20756;-91
2021/07/24 00:29:58;;;;;;;12.38;7.15;;;;;;;21.87;56.25;98654.81;5115138;28;20030;-92
2021/07/24 00:32:27;;;;;;;10.95;6.45;;;;;;;21.98;56.51;98680.22;5114666;28;20123;-92
2021/07/24 00:34:52;;;;;;;;;;;;;;;21.97;56.28;98676.66;5115361;28;20051;-91
2021/07/24 00:37:19;;;;;;;10.57;7.30;;;;;;;21.97;56.37;98673.06;5114328;28;19919;-91
2021/07/24 00:39:45;;;;;;;9.07;6.72;;;;;;;21.95;56.57;98655.13;5114972;28;20558;-91
2021/07/24 00:42:16;;;;;;;9.35;6.65;;;;;;;21.93;56.33;98642.69;5111709;28;20032;-92
2021/07/24 00:44:45;;;;;;;10.90;6.95;;;;;;;22.03;56.44;98650.94;5114306;28;20036;-92
2021/07/24 00:47:14;;;;;;;12.48;7.20;;;;;;;22.03;56.66;98668.06;5113396;28;20122;-92
2021/07/24 00:49:43;;;;;;;11.10;7.35;;;;;;;22.08;56.93;98667.72;5114399;28;20116;-92
2021/07/24 00:52:10;;;;;;;11.98;6.43;;;;;;;21.99;56.57;98654.88;5114554;28;20497;-91
2021/07/24 00:54:38;;;;;;;13.55;7.35;;;;;;;22.10;56.00;98663.06;5114864;28;20060;-92
2021/07/24 00:57:04;;;;;;;11.02;7.07;;;;;;;22.01;56.04;98661.91;5118618;27;20043;-91
2021/07/24 00:59:30;;;;;;;10.55;7.03;;;;;;;22.05;56.21;98666.09;5138339;27;20036;-92
2021/07/24 01:01:56;;;;;;;13.65;7.55;;;;;;;21.97;56.54;98657.72;5134438;27;20168;-92
2021/07/24 01:04:22;;;;;;;11.38;6.75;;;;;;;21.87;57.05;98646.69;5136437;27;20039;-91
2021/07/24 01:06:49;;;;;;;10.30;6.63;;;;;;;21.82;56.70;98654.31;5134394;27;20031;-91
2021/07/24 01:09:15;;;;;;;10.82;7.07;;;;;;;21.71;57.36;98641.59;5136363;27;20571;-92
2021/07/24 01:11:41;;;;;;;10.45;6.70;;;;;;;21.67;57.11;98636.53;5145728;27;20118;-91
2021/07/24 01:14:07;;;;;;;12.15;7.72;;;;;;;21.62;56.85;98641.38;5140044;27;20046;-92
2021/07/24 01:16:33;;;;;;;12.40;7.47;;;;;;;21.57;56.99;98649.00;5136242;27;20091;-92
2021/07/24 01:18:59;;;;;;;11.07;7.65;;;;;;;21.60;57.15;98659.59;5134715;27;20039;-91
2021/07/24 01:21:27;;;;;;;18.10;8.23;;;;;;;21.44;56.45;98649.03;5136520;27;20043;-92
2021/07/24 01:23:53;;;;;;;13.35;8.32;;;;;;;21.28;57.16;98657.38;5130965;27;20043;-91
2021/07/24 01:26:23;;;;;;;13.80;8.02;;;;;;;21.33;57.11;98666.03;5137164;27;20050;-90
2021/07/24 01:28:50;;;;;;;15.20;8.02;;;;;;;21.34;56.90;98654.25;5141210;27;20150;-92
2021/07/24 01:31:16;;;;;;;13.85;8.05;;;;;;;21.39;56.80;98660.16;5137688;27;20556;-91
2021/07/24 01:33:42;;;;;;;12.32;7.28;;;;;;;21.33;57.00;98638.97;5145337;27;20121;-92
2021/07/24 01:36:08;;;;;;;11.50;7.68;;;;;;;21.45;56.61;98648.94;5138726;27;20126;-91
2021/07/24 01:38:37;;;;;;;13.30;7.95;;;;;;;21.35;57.38;98661.38;5134085;27;20031;-91
2021/07/24 01:41:04;;;;;;;13.43;8.43;;;;;;;21.30;57.65;98660.84;5135526;27;20040;-92
2021/07/24 01:43:30;;;;;;;11.48;7.68;;;;;;;21.12;57.70;98646.81;5134053;27;20047;-91
2021/07/24 01:45:56;;;;;;;13.48;8.00;;;;;;;21.05;58.04;98649.09;5133088;27;20031;-92
2021/07/24 01:54:43;;;;;;;11.98;7.82;;;;;;;20.81;58.96;98657.13;5155822;27;20372;-89
2021/07/24 01:57:12;;;;;;;14.05;7.53;;;;;;;20.81;58.71;98661.66;5121011;28;20044;-90
2021/07/24 01:59:42;;;;;;;13.45;8.07;;;;;;;20.71;59.02;98647.94;5118551;27;20043;-90
2021/07/24 02:02:09;;;;;;;12.98;8.00;;;;;;;20.74;59.05;98661.22;5118954;28;20048;-91
2021/07/24 02:04:39;;;;;;;12.38;7.88;;;;;;;20.55;59.74;98653.50;5125431;28;20035;-92
2021/07/24 02:07:06;;;;;;;12.75;7.57;;;;;;;20.59;59.27;98646.09;5112525;28;20047;-90
2021/07/24 02:09:32;;;;;;;13.55;7.88;;;;;;;20.55;59.50;98648.13;5125691;28;20085;-90
2021/07/24 02:11:59;;;;;;;13.45;7.55;;;;;;;20.51;59.89;98636.69;5125093;27;20040;-90
2021/07/24 02:14:28;;;;;;;12.98;8.10;;;;;;;20.57;59.74;98653.41;5116678;27;20032;-91
2021/07/24 02:16:53;;;;;;;14.40;8.13;;;;;;;20.45;59.83;98644.31;5119753;28;20088;-90
2021/07/24 02:19:20;;;;;;;13.55;7.82;;;;;;;20.52;60.18;98659.16;5119492;28;20047;-89
2021/07/24 02:21:46;;;;;;;16.27;8.05;;;;;;;20.39;60.33;98640.22;5122433;28;20035;-92
2021/07/24 02:24:12;;;;;;;9.85;6.95;;;;;;;20.37;60.69;98644.00;5118382;27;20039;-90
2021/07/24 02:26:41;;;;;;;15.02;8.43;;;;;;;20.35;60.73;98646.81;5119405;28;20051;-91
2021/07/24 02:29:09;;;;;;;12.98;7.80;;;;;;;20.24;60.83;98634.03;5124201;27;20511;-90
2021/07/24 02:31:35;;;;;;;12.75;8.02;;;;;;;20.21;60.92;98636.97;5114680;28;20043;-90
2021/07/24 02:34:01;;;;;;;12.50;7.60;;;;;;;20.21;61.06;98627.97;5125625;27;20036;-91
2021/07/24 02:36:27;;;;;;;12.55;8.20;;;;;;;20.21;61.19;98636.06;5120602;28;20118;-92
2021/07/24 02:38:52;;;;;;;12.75;7.60;;;;;;;20.06;61.48;98636.19;5114923;28;20134;-93
2021/07/24 02:41:18;;;;;;;12.85;8.10;;;;;;;20.02;61.67;98633.78;5127682;28;20055;-91
2021/07/24 02:43:44;;;;;;;14.77;8.55;;;;;;;19.99;61.55;98628.59;5113313;28;20093;-90
2021/07/24 02:46:17;;;;;;;12.60;8.20;;;;;;;19.97;61.82;98628.69;5119485;28;20123;-92
2021/07/24 02:48:43;;;;;;;11.57;8.52;;;;;;;19.97;61.58;98625.13;5122352;27;20039;-90
2021/07/24 02:51:08;;;;;;;11.55;7.80;;;;;;;20.01;61.88;98637.44;5122312;27;20048;-92
2021/07/24 02:53:34;;;;;;;13.63;9.02;;;;;;;19.98;61.91;98627.72;5122191;27;20055;-90
2021/07/24 02:56:00;;;;;;;13.52;8.45;;;;;;;20.01;61.98;98645.53;5126525;27;20105;-90
2021/07/24 02:58:25;;;;;;;13.75;9.02;;;;;;;19.94;63.08;98637.00;5123707;27;20382;-90
2021/07/24 03:00:51;;;;;;;13.30;8.25;;;;;;;19.85;62.99;98629.53;5119959;27;20042;-90
2021/07/24 03:03:18;;;;;;;14.52;8.70;;;;;;;19.75;63.18;98634.66;5129583;27;20039;-92
2021/07/24 03:05:44;;;;;;;11.93;8.18;;;;;;;19.69;62.87;98630.56;5109938;28;20035;-90
2021/07/24 03:08:10;;;;;;;13.07;7.93;;;;;;;19.74;62.32;98630.25;5105662;28;20044;-92
2021/07/24 03:10:36;;;;;;;13.70;8.20;;;;;;;19.68;62.08;98628.78;5108067;28;20473;-89
2021/07/24 03:13:02;;;;;;;13.68;7.93;;;;;;;19.77;62.23;98646.22;5102411;27;20461;-91
2021/07/24 03:15:28;;;;;;;14.95;8.32;;;;;;;19.75;62.08;98640.06;5111319;28;20493;-92
2021/07/24 03:17:54;;;;;;;13.10;8.25;;;;;;;19.66;62.19;98643.34;5104823;28;20042;-90
2021/07/24 03:20:21;;;;;;;13.80;7.72;;;;;;;19.61;62.81;98637.41;5102930;28;20028;-90
2021/07/24 03:22:47;;;;;;;12.88;8.38;;;;;;;19.62;62.45;98637.28;5105179;28;20032;-90
2021/07/24 03:25:13;;;;;;;12.43;8.45;;;;;;;19.72;62.02;98659.16;5109477;28;20032;-90
2021/07/24 03:27:39;;;;;;;13.00;8.25;;;;;;;19.71;62.26;98654.72;5103787;28;20040;-93
2021/07/24 03:30:07;;;;;;;15.73;7.88;;;;;;;19.73;62.37;98660.88;5110709;28;20048;-90
2021/07/24 03:32:33;;;;;;;13.27;8.13;;;;;;;19.75;62.22;98669.75;5109267;28;20062;-91
2021/07/24 03:34:59;;;;;;;12.63;8.20;;;;;;;19.79;62.35;98681.19;5109334;27;20063;-91
2021/07/24 03:37:27;;;;;;;12.95;7.88;;;;;;;19.78;62.12;98677.66;5110606;28;20466;-90
2021/07/24 03:39:53;;;;;;;13.90;8.35;;;;;;;19.63;62.83;98665.13;5112285;28;20036;-91
2021/07/24 03:42:19;;;;;;;12.75;8.70;;;;;;;19.64;63.40;98665.00;5105314;28;20503;-92
2021/07/24 03:44:45;;;;;;;12.70;8.48;;;;;;;19.54;63.47;98652.22;5110814;28;20058;-92
2021/07/24 03:47:10;;;;;;;14.43;8.73;;;;;;;19.55;64.26;98662.94;5105167;28;20047;-90
2021/07/24 03:49:36;;;;;;;14.15;8.32;;;;;;;19.55;64.00;98670.16;5111055;28;20455;-90
2021/07/24 03:52:02;;;;;;;16.05;10.38;;;;;;;19.49;64.67;98668.72;5110269;28;20027;-92
2021/07/24 03:54:30;;;;;;;15.45;9.30;;;;;;;19.53;64.32;98672.94;5108870;28;20075;-92
2021/07/24 03:56:55;;;;;;;12.30;8.40;;;;;;;19.53;63.94;98653.22;5105104;28;20127;-92
2021/07/24 03:59:21;;;;;;;13.95;9.85;;;;;;;19.57;63.92;98649.34;5109674;28;20075;-92
2021/07/24 04:01:48;;;;;;;15.70;9.05;;;;;;;19.68;62.88;98653.06;5103085;28;20548;-91
2021/07/24 04:04:16;;;;;;;16.05;9.73;;;;;;;19.74;63.08;98649.13;5109943;28;20039;-91
2021/07/24 04:06:42;;;;;;;16.80;10.45;;;;;;;19.75;63.09;98652.69;5110603;28;20035;-90
2021/07/24 04:09:08;;;;;;;13.65;9.20;;;;;;;19.72;63.11;98634.88;5097474;28;20375;-93
2021/07/24 04:11:36;;;;;;;16.42;11.63;;;;;;;19.65;63.59;98634.38;5105300;28;20094;-90
2021/07/24 04:14:02;;;;;;;14.57;10.38;;;;;;;19.69;63.59;98638.66;5097050;28;20068;-91
2021/07/24 04:16:28;;;;;;;16.88;10.23;;;;;;;19.71;63.81;98635.84;5107133;28;20032;-91
2021/07/24 04:18:55;;;;;;;15.40;9.45;;;;;;;19.82;63.59;98654.91;5107793;28;20040;-91
2021/07/24 04:21:21;;;;;;;13.25;9.27;;;;;;;19.77;63.42;98637.25;5100453;28;20401;-92
2021/07/24 04:23:46;;;;;;;13.00;8.55;;;;;;;19.86;62.92;98664.50;5105829;28;20035;-92
2021/07/24 04:26:12;;;;;;;13.80;9.10;;;;;;;19.79;63.42;98643.44;5109796;28;20118;-92
2021/07/24 04:28:39;;;;;;;13.95;9.57;;;;;;;19.88;63.55;98651.75;5109922;28;20558;-91
2021/07/24 04:31:11;;;;;;;14.43;9.35;;;;;;;19.94;64.16;98649.63;5104287;28;20109;-91
2021/07/24 04:33:37;;;;;;;12.95;9.32;;;;;;;19.99;64.60;98658.28;5106769;28;20123;-92
2021/07/24 04:36:03;;;;;;;14.35;9.68;;;;;;;19.86;64.74;98642.94;5101110;28;20517;-91
2021/07/24 04:38:29;;;;;;;12.73;8.52;;;;;;;19.89;65.20;98648.09;5098251;28;20040;-91
2021/07/24 04:40:55;;;;;;;15.85;10.00;;;;;;;19.94;65.00;98657.72;5107705;28;20062;-92
2021/07/24 04:43:21;;;;;;;12.40;8.88;;;;;;;19.99;64.74;98658.28;5111011;28;20044;-91
2021/07/24 04:45:48;;;;;;;17.75;9.23;;;;;;;20.06;64.33;98660.47;5112636;28;20039;-92
2021/07/24 04:48:14;;;;;;;15.65;9.13;;;;;;;20.17;64.36;98667.84;5099653;28;20043;-91
2021/07/24 04:50:42;;;;;;;13.40;9.10;;;;;;;20.23;63.76;98661.13;5096453;28;20040;-91
2021/07/24 04:53:09;;;;;;;17.23;9.52;;;;;;;20.25;63.82;98664.59;5101521;28;20051;-91
2021/07/24 04:55:37;;;;;;;13.43;8.90;;;;;;;20.23;63.85;98648.53;5101511;28;20397;-91
2021/07/24 04:58:04;;;;;;;14.90;9.00;;;;;;;20.40;63.74;98654.59;5108613;28;20119;-92
2021/07/24 05:00:30;;;;;;;12.00;8.00;;;;;;;;;;5100767;28;20039;-92
2021/07/24 05:02:57;;;;;;;14.63;9.38;;;;;;;20.70;62.48;98657.00;5097555;28;20046;-91
2021/07/24 05:05:23;;;;;;;12.82;8.18;;;;;;;20.79;60.90;98653.66;5110472;28;20450;-92
2021/07/24 05:07:49;;;;;;;13.07;8.60;;;;;;;21.05;60.58;98662.59;5109070;28;20055;-91
2021/07/24 05:10:15;;;;;;;13.23;8.77;;;;;;;21.22;60.33;98645.16;5104996;28;20044;-91
2021/07/24 05:12:41;;;;;;;13.63;8.55;;;;;;;21.44;57.94;98632.81;5105032;28;20519;-91
2021/07/24 05:15:08;;;;;;;13.35;8.02;;;;;;;21.91;56.72;98629.25;5107985;28;20035;-93
2021/07/24 05:17:38;;;;;;;14.20;8.02;;;;;;;22.50;55.48;98641.03;5109662;28;20040;-91
2021/07/24 05:20:06;;;;;;;13.52;8.20;;;;;;;22.88;54.53;98639.84;5098680;28;20029;-92
2021/07/24 05:22:32;;;;;;;10.88;8.02;;;;;;;23.31;53.17;98636.41;5110229;28;20035;-92
2021/07/24 05:24:58;;;;;;;11.27;7.90;;;;;;;23.53;52.65;98641.81;5102172;28;20044;-92
2021/07/24 05:27:24;;;;;;;13.07;8.32;;;;;;;23.31;52.39;98633.69;5103570;28;20065;-92
2021/07/24 05:29:50;;;;;;;13.50;8.15;;;;;;;22.55;54.31;98626.16;5105331;28;20039;-91
2021/07/24 05:32:16;;;;;;;14.88;8.35;;;;;;;22.70;54.47;98634.91;5104733;28;20039;-91
2021/07/24 05:34:42;;;;;;;12.98;8.10;;;;;;;22.85;53.69;98632.81;5106635;28;20032;-92
2021/07/24 05:37:09;;;;;;;13.43;8.25;;;;;;;22.57;54.22;98612.47;5104857;28;20028;-91
2021/07/24 05:39:35;;;;;;;13.18;8.52;;;;;;;22.64;53.56;98632.69;5103781;28;20048;-92
2021/07/24 05:42:01;;;;;;;14.13;8.82;;;;;;;22.74;53.25;98625.53;5104891;28;20512;-91
2021/07/24 05:44:26;;;;;;;11.88;7.88;;;;;;;22.84;53.06;98624.84;5094447;28;20389;-92
2021/07/24 05:46:52;;;;;;;12.60;8.07;;;;;;;22.71;53.63;98638.50;5112314;28;20047;-93
2021/07/24 05:49:18;;;;;;;11.95;8.52;;;;;;;22.54;53.65;98632.53;5104425;28;20101;-93
2021/07/24 05:51:44;;;;;;;13.00;7.93;;;;;;;22.74;53.19;98622.84;5104754;28;20043;-92
2021/07/24 05:54:11;;;;;;;13.45;8.38;;;;;;;22.89;53.24;98639.72;5099307;28;20044;-92
2021/07/24 05:56:37;;;;;;;11.68;8.15;;;;;;;22.87;53.58;98630.84;5103294;28;20048;-93
2021/07/24 05:59:04;;;;;;;13.27;8.50;;;;;;;22.85;53.74;98635.53;5113367;28;20401;-92
2021/07/24 06:01:30;;;;;;;13.45;8.02;;;;;;;23.03;52.71;98619.69;5100816;28;20147;-91
2021/07/24 06:03:55;;;;;;;12.48;8.07;;;;;;;23.34;52.10;98626.19;5106936;28;20036;-93
2021/07/24 06:06:21;;;;;;;10.90;7.80;;;;;;;23.53;51.11;98619.22;5100798;28;20486;-93
2021/07/24 06:08:47;;;;;;;15.10;8.10;;;;;;;23.81;50.36;98603.38;5109905;28;20055;-92
2021/07/24 06:11:14;;;;;;;13.30;8.13;;;;;;;24.28;48.88;98623.78;5097999;28;20047;-93
2021/07/24 06:13:40;;;;;;;14.27;7.97;;;;;;;24.71;48.13;98636.41;5107268;28;20038;-94
2021/07/24 06:16:09;;;;;;;12.95;7.43;;;;;;;24.83;46.74;98609.13;5109093;28;20037;-93
2021/07/24 06:18:35;;;;;;;12.63;7.60;;;;;;;25.07;45.88;98601.50;5093903;28;20036;-93
2021/07/24 06:21:00;;;;;;;10.57;7.25;;;;;;;25.35;44.73;98623.53;5095644;28;20130;-93
2021/07/24 06:23:26;;;;;;;11.05;7.43;;;;;;;25.35;45.57;98613.53;5097417;28;20044;-92
2021/07/24 06:25:52;;;;;;;12.85;7.80;;;;;;;25.37;45.62;98621.53;5100230;28;20040;-93
2021/07/24 06:28:21;;;;;;;11.32;7.63;;;;;;;25.53;45.00;98615.56;5100804;28;20481;-92
2021/07/24 06:30:47;;;;;;;12.93;7.57;;;;;;;25.71;44.66;98624.75;5101390;28;20029;-91
2021/07/24 06:33:13;;;;;;;11.48;7.57;;;;;;;25.72;44.58;98604.72;5103850;28;20043;-92
2021/07/24 06:35:39;;;;;;;11.90;7.82;;;;;;;25.99;44.18;98631.28;5093609;28;20112;-93
2021/07/24 06:38:05;;;;;;;11.10;7.85;;;;;;;26.14;43.50;98634.44;5094938;28;20054;-91
2021/07/24 06:40:31;;;;;;;13.35;7.65;;;;;;;26.28;42.92;98622.22;5107538;28;20059;-93
2021/07/24 06:42:57;;;;;;;11.68;8.10;;;;;;;26.33;42.91;98619.94;5101788;28;20070;-91
2021/07/24 06:45:24;;;;;;;14.15;8.05;;;;;;;26.44;42.55;98627.09;5109712;28;20100;-91
2021/07/24 06:47:50;;;;;;;14.10;8.15;;;;;;;26.48;42.67;98614.00;5111535;28;20043;-93
2021/07/24 06:50:16;;;;;;;14.27;8.48;;;;;;;26.50;42.53;98606.56;5104503;28;20058;-91
2021/07/24 06:52:43;;;;;;;11.68;7.78;;;;;;;26.39;43.08;98630.28;5106982;28;20052;-92
2021/07/24 06:55:09;;;;;;;13.10;8.35;;;;;;;26.41;43.71;98624.66;5111180;28;20400;-92
2021/07/24 06:57:35;;;;;;;12.60;8.45;;;;;;;26.54;43.08;98621.63;5103078;28;20116;-91
2021/07/24 07:00:01;;;;;;;14.85;8.55;;;;;;;26.59;42.52;98600.28;5106722;28;20040;-92
2021/07/24 07:02:28;;;;;;;14.27;8.18;;;;;;;26.84;42.05;98623.28;5109812;28;20047;-91
2021/07/24 07:04:54;;;;;;;11.90;8.00;;;;;;;26.72;42.45;98621.75;5101035;28;20043;-91
2021/07/24 07:07:20;;;;;;;11.75;7.88;;;;;;;26.82;41.98;98623.44;5099951;28;20036;-93
2021/07/24 07:09:46;;;;;;;10.88;8.23;;;;;;;26.84;42.39;98623.28;5101606;28;20067;-93
2021/07/24 07:12:12;;;;;;;14.20;7.63;;;;;;;26.91;42.02;98618.97;5102179;28;20040;-93
2021/07/24 07:14:37;;;;;;;11.40;8.23;;;;;;;27.22;41.58;98629.66;5117619;28;20481;-94
2021/07/24 07:17:03;;;;;;;21.80;9.00;;;;;;;27.49;41.43;98627.94;5105868;28;20035;-92
2021/07/24 07:19:30;;;;;;;12.05;7.72;;;;;;;27.54;41.42;98609.22;5108046;28;20042;-93
2021/07/24 07:21:56;;;;;;;15.60;8.13;;;;;;;27.64;40.13;98610.88;5110780;28;20132;-93
2021/07/24 07:24:22;;;;;;;9.93;7.22;;;;;;;27.79;40.01;98613.06;5104605;28;20523;-94
2021/07/24 07:26:48;;;;;;;13.25;8.43;;;;;;;27.72;41.21;98609.25;5110954;28;20043;-94
2021/07/24 07:29:14;;;;;;;12.18;8.05;;;;;;;27.88;41.03;98614.91;5106505;28;20040;-92
2021/07/24 07:31:40;;;;;;;13.82;8.20;;;;;;;27.92;40.16;98613.59;5101226;28;20439;-94
2021/07/24 07:34:09;;;;;;;13.38;8.15;;;;;;;28.08;39.95;98615.59;5108933;28;20385;-92
2021/07/24 07:36:36;;;;;;;13.82;8.70;;;;;;;28.19;39.46;98611.75;5111703;28;20537;-92
2021/07/24 07:39:03;;;;;;;13.60;8.70;;;;;;;28.37;39.90;98619.97;5102524;28;20044;-93
2021/07/24 07:41:29;;;;;;;11.40;8.15;;;;;;;28.53;39.11;98617.38;5106666;28;20087;-93
2021/07/24 07:43:55;;;;;;;12.10;8.43;;;;;;;28.67;38.88;98621.44;5105398;28;20032;-92
2021/07/24 07:46:21;;;;;;;14.35;7.57;;;;;;;28.75;38.66;98615.97;5108206;28;20405;-92
2021/07/24 07:48:46;;;;;;;14.55;8.15;;;;;;;27.84;39.41;98606.09;5109270;28;20048;-92
2021/07/24 07:51:12;;;;;;;11.35;7.97;;;;;;;27.97;40.27;98593.97;5102631;27;20127;-92
2021/07/24 07:53:39;;;;;;;11.38;7.43;;;;;;;28.43;39.47;98614.72;5107327;28;20040;-93
2021/07/24 07:59:04;;;;;;;12.38;7.90;;;;;;;28.64;37.78;98619.84;5092012;27;20362;-91
2021/07/24 08:01:30;;;;;;;14.33;8.40;;;;;;;28.34;37.76;98617.53;5089876;28;20040;-92
2021/07/24 08:03:56;;;;;;;11.63;7.95;;;;;;;28.57;38.40;98609.72;5091464;28;20044;-93
2021/07/24 08:06:22;;;;;;;12.25;8.80;;;;;;;28.20;38.80;98605.28;5094747;28;20064;-92
2021/07/24 08:08:48;;;;;;;14.48;8.23;;;;;;;28.41;39.33;98599.47;5093136;28;20037;-90
2021/07/24 08:11:14;;;;;;;18.73;8.02;;;;;;;28.82;38.33;98600.66;5091409;28;20457;-91
2021/07/24 08:13:39;;;;;;;12.48;7.53;;;;;;;29.15;37.20;98602.72;5090822;28;20040;-92
2021/07/24 08:16:14;;;;;;;14.30;7.38;;;;;;;29.49;36.16;98597.19;5086820;28;20072;-91
2021/07/24 08:18:40;;;;;;;10.88;7.15;;;;;;;29.42;35.60;98602.50;5080927;28;20032;-92
2021/07/24 08:21:06;;;;;;;12.20;8.02;;;;;;;29.63;35.54;98620.38;5090979;28;20032;-92
2021/07/24 08:23:32;;;;;;;11.35;7.35;;;;;;;29.55;35.50;98609.38;5090409;28;20032;-90
2021/07/24 08:25:58;;;;;;;10.25;6.80;;;;;;;29.77;34.99;98597.81;5090480;28;20105;-90
2021/07/24 08:28:25;;;;;;;12.75;8.32;;;;;;;30.07;34.39;98587.25;5090396;28;20102;-91
2021/07/24 08:30:51;;;;;;;13.00;8.07;;;;;;;30.13;34.11;98605.75;5088394;28;20040;-90
2021/07/24 08:33:18;;;;;;;12.88;8.07;;;;;;;29.87;34.58;98608.66;5089930;28;20145;-89
2021/07/24 08:35:44;;;;;;;12.32;7.70;;;;;;;29.69;35.40;98617.00;5089549;28;20032;-90
2021/07/24 08:38:10;;;;;;;12.90;7.55;;;;;;;29.92;35.02;98619.94;5089355;28;20028;-89
2021/07/24 08:40:37;;;;;;;16.02;7.88;;;;;;;30.00;34.74;98619.97;5089431;28;20494;-89
2021/07/24 08:43:03;;;;;;;11.93;8.27;;;;;;;30.10;34.60;98611.56;5089321;28;20071;-90
2021/07/24 08:45:29;;;;;;;15.18;8.07;;;;;;;30.19;34.69;98616.06;5086736;28;20127;-90
2021/07/24 08:47:56;;;;;;;10.88;8.43;;;;;;;29.70;35.26;98607.75;5089508;28;20055;-89
2021/07/24 08:50:23;;;;;;;13.57;8.20;;;;;;;30.09;34.75;98605.25;5089703;28;20036;-92
2021/07/24 08:52:53;;;;;;;13.80;8.75;;;;;;;30.22;33.06;98593.75;5090558;28;20127;-90
2021/07/24 08:55:21;;;;;;;17.67;8.10;;;;;;;30.05;33.58;98589.28;5090787;28;20048;-92
2021/07/24 08:57:47;;;;;;;;;;;;;;;30.55;33.62;98606.66;5090111;28;20387;-89
2021/07/24 09:00:15;;;;;;;11.65;7.00;;;;;;;30.42;31.96;98594.28;5088591;28;20456;-91
2021/07/24 09:02:43;;;;;;;13.32;7.50;;;;;;;30.29;32.98;98593.97;5089425;28;20044;-91
2021/07/24 09:05:10;;;;;;;12.07;7.83;;;;;;;30.64;32.76;98591.88;5089494;28;20040;-90
2021/07/24 09:07:40;;;;;;;11.60;7.20;;;;;;;30.77;32.63;98592.19;5089402;28;20040;-90
2021/07/24 09:10:07;;;;;;;12.20;7.53;;;;;;;30.57;32.84;98607.31;5077080;28;20490;-89
2021/07/24 09:12:34;;;;;;;11.53;7.43;;;;;;;30.40;32.39;98612.81;5076031;28;20111;-91
2021/07/24 09:15:00;;;;;;;11.27;7.70;;;;;;;30.50;32.72;98607.16;5073378;28;20051;-91
2021/07/24 09:17:26;;;;;;;11.65;7.45;;;;;;;30.44;33.00;98596.88;5075858;28;20132;-90
2021/07/24 09:19:52;;;;;;;14.48;7.57;;;;;;;30.88;31.96;98605.59;5075311;28;20489;-90
2021/07/24 09:22:25;;;;;;;11.48;7.57;;;;;;;31.36;32.05;98611.09;5075853;28;20067;-92
2021/07/24 09:25:05;;;;;;;10.65;7.25;;;;;;;31.68;30.89;98601.00;5074807;28;20040;-90
2021/07/24 09:27:31;;;;;;;11.90;6.70;;;;;;;31.76;29.67;98605.59;5074875;28;20114;-91
2021/07/24 09:29:57;;;;;;;11.75;6.90;;;;;;;31.42;29.15;98590.28;5074177;28;20068;-91
2021/07/24 09:32:22;;;;;;;10.68;7.10;;;;;;;31.44;30.33;98597.31;5075719;28;20045;-92
2021/07/24 09:34:48;;;;;;;14.25;7.13;;;;;;;31.67;30.18;98578.16;5075844;28;20060;-91
2021/07/24 09:37:25;;;;;;;10.02;6.30;;;;;;;31.95;28.66;98585.03;5075172;28;20127;-90
2021/07/24 09:39:51;;;;;;;14.38;7.30;;;;;;;31.96;29.66;98576.56;5072101;28;20046;-93
2021/07/24 09:42:20;;;;;;;20.40;7.65;;;;;;;32.23;30.36;98586.22;5074682;28;20064;-89
2021/07/24 09:44:46;;;;;;;14.23;8.10;;;;;;;32.21;30.30;98570.94;5072861;28;20037;-89
2021/07/24 09:50:33;;;;;;;11.13;6.70;;;;;;;32.03;28.44;98577.59;5132260;27;20360;-91
2021/07/24 09:52:59;;;;;;;11.40;7.20;;;;;;;31.22;30.06;98581.63;5132254;28;20054;-92
2021/07/24 09:55:26;;;;;;;9.88;6.70;;;;;;;31.47;30.62;98563.16;5125968;28;20494;-91
2021/07/24 09:57:55;;;;;;;9.25;6.88;;;;;;;32.03;29.69;98572.09;5131722;28;20042;-91
2021/07/24 10:00:23;;;;;;;10.25;6.82;;;;;;;32.25;29.13;98580.50;5128211;28;20046;-91
2021/07/24 10:02:56;;;;;;;10.02;7.45;;;;;;;32.20;29.44;98586.56;5131300;28;20039;-92
2021/07/24 10:05:23;;;;;;;12.95;7.82;;;;;;;32.60;28.78;98579.03;5130865;28;20039;-90
2021/07/24 10:07:50;;;;;;;10.57;7.07;;;;;;;32.98;28.45;98594.63;5129367;28;20040;-91
2021/07/24 10:10:18;;;;;;;11.73;7.28;;;;;;;32.83;28.74;98586.34;5129470;28;20043;-89
2021/07/24 10:12:43;;;;;;;8.65;7.25;;;;;;;32.66;28.39;98571.88;5130772;28;20489;-92
2021/07/24 10:15:11;;;;;;;8.35;6.78;;;;;;;32.94;28.10;98581.25;5128583;28;20053;-90
2021/07/24 10:17:38;;;;;;;11.98;7.07;;;;;;;32.81;28.87;98588.44;5130972;28;20487;-90
2021/07/24 10:20:06;;;;;;;12.48;7.82;;;;;;;33.13;28.25;98593.59;5131075;28;20376;-89
2021/07/24 10:22:32;;;;;;;9.23;7.53;;;;;;;32.78;27.37;98589.66;5131644;28;20047;-91
2021/07/24 10:24:59;;;;;;;11.10;6.93;;;;;;;32.97;27.87;98587.41;5130946;28;20400;-90
2021/07/24 10:27:30;;;;;;;14.67;6.80;;;;;;;33.01;28.30;98586.84;5125320;28;20041;-92
2021/07/24 10:32:59;;;;;;;9.10;7.40;;;;;;;32.82;27.84;98580.00;5089328;27;20879;-90
2021/07/24 10:35:38;;;;;;;11.70;7.25;;;;;;;33.12;27.67;98574.53;5090498;28;20051;-88
2021/07/24 10:38:31;;;;;;;11.80;7.55;;;;;;;33.44;26.85;98576.00;5089427;28;20064;-92
2021/07/24 10:41:34;;;;;;;12.25;7.38;;;;;;;33.65;27.25;98580.72;5088865;28;20386;-92
2021/07/24 10:44:03;;;;;;;10.57;7.55;;;;;;;33.74;26.20;98579.53;5087569;28;20040;-89
2021/07/24 10:47:08;;;;;;;12.95;7.50;;;;;;;33.70;26.52;98597.56;5087874;28;20059;-88
2021/07/24 10:50:00;;;;;;;9.70;7.18;;;;;;;33.94;27.01;98587.19;5085930;28;20468;-91
2021/07/24 10:52:46;;;;;;;10.90;7.45;;;;;;;33.89;26.53;98586.94;5078717;28;20047;-90
2021/07/24 10:55:12;;;;;;;13.13;7.35;;;;;;;33.70;26.85;98581.00;5090464;28;20415;-92
2021/07/24 10:58:05;;;;;;;10.98;7.63;;;;;;;33.88;27.01;98580.56;5089909;28;20071;-91
2021/07/24 11:00:35;;;;;;;9.98;7.15;;;;;;;34.09;26.71;98581.59;5086871;28;20037;-90
2021/07/24 11:03:02;;;;;;;15.77;8.15;;;;;;;33.31;25.86;98570.28;5090132;28;20052;-92
2021/07/24 11:05:30;;;;;;;12.60;7.70;;;;;;;33.13;26.59;98571.56;5090293;28;20045;-93
2021/07/24 11:07:57;;;;;;;9.90;7.93;;;;;;;32.97;26.78;98562.63;5087649;28;20040;-93
2021/07/24 11:10:23;;;;;;;10.43;7.18;;;;;;;32.81;26.48;98552.63;5090567;28;20063;-92
2021/07/24 11:12:49;;;;;;;9.82;7.35;;;;;;;32.90;26.44;98552.38;5090630;28;20397;-92
2021/07/24 11:15:18;;;;;;;13.85;7.38;;;;;;;33.09;27.33;98556.44;5088709;28;20035;-91
2021/07/24 11:17:44;;;;;;;9.50;7.55;;;;;;;33.56;26.66;98546.03;5089760;28;20056;-92
2021/07/24 11:20:45;;;;;;;12.82;7.55;;;;;;;34.14;26.46;98559.84;5089915;28;20036;-93
2021/07/24 11:23:11;;;;;;;11.50;7.43;;;;;;;34.59;24.82;98557.66;5089762;28;20043;-93
2021/07/24 11:25:41;;;;;;;11.43;7.85;;;;;;;34.56;24.48;98550.63;5090222;28;20032;-92
2021/07/24 11:28:08;;;;;;;13.00;7.78;;;;;;;34.70;25.16;98554.38;5087149;28;20039;-92
2021/07/24 11:30:34;;;;;;;11.68;7.95;;;;;;;34.06;24.18;98541.47;5089588;28;20080;-92
2021/07/24 11:33:02;;;;;;;12.00;7.53;;;;;;;34.41;23.99;98552.63;5089882;28;20477;-92
2021/07/24 11:35:38;;;;;;;10.35;7.80;;;;;;;34.43;23.05;98556.06;5089616;28;20028;-94
2021/07/24 11:38:20;;;;;;;10.57;7.15;;;;;;;34.44;23.52;98538.44;5089606;28;20050;-92
2021/07/24 11:40:58;;;;;;;11.13;7.88;;;;;;;34.80;24.06;98544.88;5089318;28;20516;-94
2021/07/24 11:43:25;;;;;;;11.68;7.82;;;;;;;34.87;23.02;98531.94;5080470;28;20041;-92